createdAt,value
2023-05-05T00:00:49.902Z,16.6585
2023-05-05T00:01:52.355Z,16.7678
2023-05-05T00:02:54.866Z,16.6970
2023-05-05T00:03:57.574Z,16.6948
2023-05-05T00:05:00.008Z,16.9373
2023-05-05T00:06:02.459Z,16.8588
2023-05-05T00:07:04.909Z,17.1461
2023-05-05T00:08:07.577Z,17.5922
2023-05-05T00:09:10.054Z,17.6564
2023-05-05T00:10:12.486Z,17.0457
2023-05-05T00:11:15.259Z,16.6752
2023-05-05T00:12:17.761Z,16.5237
2023-05-05T00:13:20.364Z,16.4129
2023-05-05T00:14:22.811Z,16.3312
2023-05-05T00:15:25.289Z,16.3219
2023-05-05T00:16:28.047Z,16.2515
2023-05-05T00:17:30.516Z,16.1563
2023-05-05T00:18:33.019Z,16.0114
2023-05-05T00:19:35.473Z,16.0495
2023-05-05T00:20:37.953Z,16.1541
2023-05-05T00:21:40.429Z,16.4433
2023-05-05T00:22:42.930Z,16.3783
2023-05-05T00:23:45.406Z,16.2498
2023-05-05T00:24:47.902Z,16.2350
2023-05-05T00:25:50.773Z,16.3770
2023-05-05T00:26:53.276Z,16.3885
2023-05-05T00:27:55.783Z,16.3342
2023-05-05T00:28:58.280Z,16.2346
2023-05-05T00:30:00.780Z,16.2782
2023-05-05T00:31:03.283Z,16.3106
2023-05-05T00:32:05.787Z,16.1834
2023-05-05T00:33:08.353Z,16.1813
2023-05-05T00:34:10.898Z,16.3191
2023-05-05T00:35:13.392Z,16.1175
2023-05-05T00:36:15.861Z,16.1606
2023-05-05T00:37:18.371Z,16.0114
2023-05-05T00:38:21.101Z,16.0814
2023-05-05T00:39:23.613Z,16.0432
2023-05-05T00:40:26.134Z,16.0409
2023-05-05T00:41:28.681Z,16.1138
2023-05-05T00:42:31.202Z,16.0349
2023-05-05T00:43:33.766Z,16.1023
2023-05-05T00:44:36.306Z,16.0880
2023-05-05T00:45:38.796Z,16.0930
2023-05-05T00:46:41.435Z,16.0060
2023-05-05T00:47:43.941Z,16.0048
2023-05-05T00:48:46.419Z,15.8414
2023-05-05T00:49:48.916Z,15.8378
2023-05-05T00:50:51.388Z,15.8447
2023-05-05T00:51:53.840Z,15.7746
2023-05-05T00:52:56.317Z,15.7063
2023-05-05T00:53:58.823Z,15.6468
2023-05-05T00:55:01.318Z,15.5814
2023-05-05T00:56:03.762Z,15.6237
2023-05-05T00:57:06.219Z,15.5689
2023-05-05T00:58:08.686Z,15.5695
2023-05-05T00:59:11.148Z,15.6535
2023-05-05T01:00:13.631Z,15.5675
2023-05-05T01:01:16.100Z,15.5786
2023-05-05T01:02:18.539Z,15.5459
2023-05-05T01:03:21.051Z,15.4759
2023-05-05T01:04:23.550Z,15.4770
2023-05-05T01:05:25.974Z,15.4344
2023-05-05T01:06:28.462Z,15.3507
2023-05-05T01:07:30.907Z,15.3229
2023-05-05T01:08:33.373Z,15.2183
2023-05-05T01:09:35.893Z,15.2561
2023-05-05T01:10:38.325Z,15.4372
2023-05-05T01:11:40.824Z,15.5249
2023-05-05T01:12:43.333Z,15.7803
2023-05-05T01:13:45.797Z,15.8332
2023-05-05T01:14:48.268Z,15.6358
2023-05-05T01:15:50.773Z,15.4798
2023-05-05T01:16:53.197Z,15.4638
2023-05-05T01:17:55.699Z,15.3419
2023-05-05T01:18:58.185Z,15.3408
2023-05-05T01:20:00.745Z,15.2676
2023-05-05T01:21:03.224Z,15.3694
2023-05-05T01:22:05.700Z,15.2929
2023-05-05T01:23:08.178Z,15.3334
2023-05-05T01:24:10.917Z,15.2802
2023-05-05T01:25:13.364Z,15.1375
2023-05-05T01:26:15.788Z,15.0811
2023-05-05T01:27:18.257Z,15.0705
2023-05-05T01:28:20.739Z,15.0436
2023-05-05T01:29:23.242Z,14.9321
2023-05-05T01:30:25.709Z,14.9373
2023-05-05T01:31:28.248Z,14.9596
2023-05-05T01:32:30.716Z,14.9355
2023-05-05T01:33:33.109Z,14.9527
2023-05-05T01:34:35.628Z,14.8948
2023-05-05T01:35:38.075Z,14.8191
2023-05-05T01:36:40.528Z,14.7731
2023-05-05T01:37:43.020Z,14.7810
2023-05-05T01:38:45.711Z,14.7304
2023-05-05T01:39:48.166Z,14.7466
2023-05-05T01:40:50.635Z,14.7819
2023-05-05T01:41:53.066Z,14.7045
2023-05-05T01:42:55.565Z,14.7437
2023-05-05T01:43:58.038Z,14.7023
2023-05-05T01:45:00.509Z,14.6426
2023-05-05T01:46:03.236Z,14.6594
2023-05-05T01:47:05.741Z,14.6319
2023-05-05T01:48:08.189Z,14.6602
2023-05-05T01:49:10.648Z,14.6132
2023-05-05T01:50:13.112Z,14.7621
2023-05-05T01:51:15.573Z,14.8513
2023-05-05T01:52:18.044Z,14.9505
2023-05-05T01:53:20.740Z,14.9838
2023-05-05T01:54:23.185Z,14.9844
2023-05-05T01:55:25.645Z,15.0658
2023-05-05T01:56:28.366Z,15.0862
2023-05-05T01:57:30.815Z,15.2230
2023-05-05T01:58:33.517Z,15.3230
2023-05-05T01:59:36.014Z,15.2312
2023-05-05T02:00:38.494Z,15.2935
2023-05-05T02:01:41.057Z,15.1636
2023-05-05T02:02:43.576Z,15.0680
2023-05-05T02:03:46.128Z,15.1474
2023-05-05T02:04:48.600Z,15.2513
2023-05-05T02:05:51.388Z,15.2165
2023-05-05T02:06:53.837Z,15.0936
2023-05-05T02:07:56.329Z,15.0697
2023-05-05T02:08:58.838Z,15.0747
2023-05-05T02:10:01.357Z,15.9479
2023-05-05T02:11:03.915Z,16.6793
2023-05-05T02:12:06.416Z,16.0619
2023-05-05T02:13:09.016Z,15.6347
2023-05-05T02:14:11.762Z,15.3914
2023-05-05T02:15:14.281Z,15.6545
2023-05-05T02:16:16.901Z,15.5700
2023-05-05T02:17:19.472Z,15.5453
2023-05-05T02:18:21.949Z,15.4792
2023-05-05T02:19:22.321Z,15.3895
2023-05-05T02:20:24.848Z,15.3095
2023-05-05T02:21:27.684Z,15.4138
2023-05-05T02:22:30.140Z,15.3552
2023-05-05T02:23:32.683Z,15.1240
2023-05-05T02:24:35.170Z,15.2132
2023-05-05T02:25:37.638Z,15.1688
2023-05-05T02:26:40.400Z,15.0145
2023-05-05T02:27:42.872Z,14.9998
2023-05-05T02:28:45.633Z,15.0299
2023-05-05T02:29:48.080Z,14.9192
2023-05-05T02:30:50.745Z,14.8463
2023-05-05T02:31:53.472Z,14.8785
2023-05-05T02:32:55.979Z,14.7392
2023-05-05T02:33:58.782Z,14.6817
2023-05-05T02:35:01.254Z,14.7767
2023-05-05T02:36:03.959Z,14.8325
2023-05-05T02:37:06.411Z,14.8985
2023-05-05T02:38:08.823Z,14.7437
2023-05-05T02:39:11.585Z,14.6963
2023-05-05T02:40:14.063Z,14.6751
2023-05-05T02:41:16.824Z,14.7172
2023-05-05T02:42:19.244Z,14.6355
2023-05-05T02:43:21.733Z,14.6281
2023-05-05T02:44:24.533Z,14.6091
2023-05-05T02:45:26.937Z,14.5362
2023-05-05T02:46:29.700Z,14.4505
2023-05-05T02:47:32.147Z,14.4601
2023-05-05T02:48:34.620Z,14.3748
2023-05-05T02:49:37.314Z,14.3633
2023-05-05T02:50:39.812Z,14.4902
2023-05-05T02:51:42.275Z,14.4781
2023-05-05T02:52:44.719Z,14.4759
2023-05-05T02:53:47.165Z,14.4359
2023-05-05T02:54:49.595Z,14.4066
2023-05-05T02:55:52.061Z,14.3642
2023-05-05T02:56:54.490Z,14.3291
2023-05-05T02:57:56.917Z,14.2862
2023-05-05T02:58:59.381Z,14.2603
2023-05-05T03:00:01.835Z,14.2233
2023-05-05T03:01:04.296Z,14.2185
2023-05-05T03:02:07.079Z,14.2144
2023-05-05T03:03:09.595Z,14.2425
2023-05-05T03:04:12.072Z,14.2530
2023-05-05T03:05:14.481Z,14.1778
2023-05-05T03:06:17.046Z,14.1706
2023-05-05T03:07:19.499Z,14.2678
2023-05-05T03:08:21.916Z,14.3482
2023-05-05T03:09:24.394Z,14.2797
2023-05-05T03:10:26.841Z,14.2116
2023-05-05T03:11:29.300Z,14.1399
2023-05-05T03:12:31.779Z,14.1316
2023-05-05T03:13:34.189Z,14.2158
2023-05-05T03:14:36.661Z,14.1534
2023-05-05T03:15:39.111Z,14.0751
2023-05-05T03:16:41.638Z,14.0773
2023-05-05T03:17:44.142Z,14.0947
2023-05-05T03:18:46.602Z,14.1382
2023-05-05T03:19:49.062Z,14.0842
2023-05-05T03:20:51.491Z,14.2384
2023-05-05T03:21:53.949Z,14.2860
2023-05-05T03:22:56.380Z,14.3542
2023-05-05T03:23:58.836Z,14.5037
2023-05-05T03:25:01.287Z,14.5648
2023-05-05T03:26:03.739Z,14.5394
2023-05-05T03:27:06.389Z,14.4549
2023-05-05T03:28:08.804Z,14.3847
2023-05-05T03:29:11.234Z,14.4032
2023-05-05T03:30:13.665Z,14.5212
2023-05-05T03:31:16.152Z,14.5890
2023-05-05T03:32:18.601Z,14.6982
2023-05-05T03:33:21.017Z,14.7073
2023-05-05T03:34:23.487Z,14.7214
2023-05-05T03:35:25.929Z,14.6537
2023-05-05T03:36:29.502Z,14.6974
2023-05-05T03:37:32.018Z,14.7123
2023-05-05T03:38:34.566Z,14.6958
2023-05-05T03:39:36.986Z,14.6295
2023-05-05T03:40:44.196Z,14.5926
2023-05-05T03:41:40.710Z,14.5309
2023-05-05T03:42:43.152Z,14.5829
2023-05-05T03:43:45.816Z,14.5563
2023-05-05T03:44:48.294Z,14.6156
2023-05-05T03:45:50.781Z,14.7106
2023-05-05T03:46:51.116Z,14.7333
2023-05-05T03:47:53.609Z,14.7616
2023-05-05T03:48:56.399Z,14.6972
2023-05-05T03:49:58.816Z,14.5959
2023-05-05T03:51:01.273Z,14.5554
2023-05-05T03:52:04.078Z,14.5033
2023-05-05T03:53:06.543Z,14.6720
2023-05-05T03:54:09.314Z,14.7046
2023-05-05T03:55:11.750Z,14.6888
2023-05-05T03:56:14.224Z,14.7285
2023-05-05T03:57:17.015Z,14.6544
2023-05-05T03:58:19.420Z,14.5488
2023-05-05T03:59:21.862Z,14.5834
2023-05-05T04:00:24.330Z,14.6434
2023-05-05T04:01:27.049Z,14.8011
2023-05-05T04:02:29.591Z,14.9193
2023-05-05T04:03:32.164Z,14.9406
2023-05-05T04:04:34.791Z,14.9676
2023-05-05T04:05:37.323Z,14.9709
2023-05-05T04:06:39.816Z,14.8760
2023-05-05T04:07:42.279Z,14.8067
2023-05-05T04:08:44.757Z,14.7734
2023-05-05T04:09:47.222Z,14.7627
2023-05-05T04:10:49.736Z,14.6988
2023-05-05T04:11:52.224Z,14.5923
2023-05-05T04:12:54.683Z,14.3218
2023-05-05T04:13:57.115Z,13.9340
2023-05-05T04:14:59.635Z,13.7240
2023-05-05T04:16:02.120Z,13.7447
2023-05-05T04:17:04.607Z,13.8496
2023-05-05T04:18:07.104Z,13.8646
2023-05-05T04:19:09.570Z,13.8259
2023-05-05T04:20:12.047Z,13.8225
2023-05-05T04:21:14.492Z,13.9139
2023-05-05T04:22:16.937Z,13.9067
2023-05-05T04:23:19.380Z,13.9411
2023-05-05T04:24:21.831Z,13.8996
2023-05-05T04:25:24.285Z,13.9084
2023-05-05T04:26:26.711Z,14.2717
2023-05-05T04:27:29.228Z,14.6052
2023-05-05T04:28:31.661Z,14.5670
2023-05-05T04:29:34.152Z,14.6551
2023-05-05T04:30:36.636Z,14.8089
2023-05-05T04:31:39.114Z,14.8911
2023-05-05T04:32:41.539Z,14.7244
2023-05-05T04:33:44.105Z,14.6413
2023-05-05T04:34:46.609Z,14.7863
2023-05-05T04:35:49.028Z,14.8359
2023-05-05T04:36:51.478Z,15.4448
2023-05-05T04:37:53.904Z,15.8562
2023-05-05T04:38:56.433Z,15.3703
2023-05-05T04:39:58.900Z,14.9165
2023-05-05T04:41:01.358Z,15.0568
2023-05-05T04:42:03.867Z,15.2285
2023-05-05T04:43:06.276Z,15.3512
2023-05-05T04:44:08.745Z,15.2008
2023-05-05T04:45:11.169Z,15.0354
2023-05-05T04:46:13.691Z,14.9344
2023-05-05T04:47:16.429Z,14.7594
2023-05-05T04:48:18.905Z,14.7192
2023-05-05T04:49:21.411Z,14.5433
2023-05-05T04:50:23.835Z,14.5411
2023-05-05T04:51:26.296Z,14.4676
2023-05-05T04:52:28.781Z,14.2683
2023-05-05T04:53:31.234Z,14.2422
2023-05-05T04:54:33.729Z,14.3052
2023-05-05T04:55:36.167Z,14.2700
2023-05-05T04:56:38.641Z,14.4227
2023-05-05T04:57:41.114Z,14.8548
2023-05-05T04:58:43.575Z,14.9329
2023-05-05T04:59:46.035Z,15.0447
2023-05-05T05:00:48.500Z,15.3383
2023-05-05T05:01:51.185Z,15.4187
2023-05-05T05:02:53.715Z,15.7321
2023-05-05T05:03:56.224Z,16.2016
2023-05-05T05:04:58.670Z,16.3582
2023-05-05T05:06:01.108Z,16.1133
2023-05-05T05:07:03.619Z,15.7684
2023-05-05T05:08:06.026Z,15.5241
2023-05-05T05:09:08.498Z,15.6418
2023-05-05T05:10:11.108Z,15.0623
2023-05-05T05:11:13.657Z,14.6108
2023-05-05T05:12:16.145Z,14.6080
2023-05-05T05:13:18.747Z,14.6311
2023-05-05T05:14:21.252Z,14.4979
2023-05-05T05:15:23.719Z,14.5124
2023-05-05T05:16:26.347Z,14.5749
2023-05-05T05:17:28.839Z,14.5485
2023-05-05T05:18:31.286Z,14.6453
2023-05-05T05:19:33.752Z,15.1979
2023-05-05T05:20:36.218Z,15.5060
2023-05-05T05:21:38.665Z,14.8017
2023-05-05T05:22:41.150Z,14.8518
2023-05-05T05:23:43.606Z,14.7288
2023-05-05T05:24:46.188Z,14.5378
2023-05-05T05:25:48.674Z,14.5694
2023-05-05T05:26:50.891Z,14.6628
2023-05-05T05:28:06.131Z,14.4959
2023-05-05T05:28:54.398Z,14.4883
2023-05-05T05:29:57.083Z,14.4029
2023-05-05T05:30:59.550Z,14.4938
2023-05-05T05:32:02.106Z,14.4241
2023-05-05T05:33:04.539Z,14.4498
2023-05-05T05:34:04.895Z,14.5578
2023-05-05T05:35:07.370Z,14.9159
2023-05-05T05:36:09.817Z,14.9563
2023-05-05T05:37:12.512Z,14.7692
2023-05-05T05:38:14.991Z,14.8875
2023-05-05T05:39:17.670Z,15.1214
2023-05-05T05:40:20.098Z,15.0006
2023-05-05T05:41:22.584Z,15.0090
2023-05-05T05:42:25.251Z,14.9638
2023-05-05T05:43:27.726Z,15.2137
2023-05-05T05:44:30.430Z,15.2692
2023-05-05T05:45:32.910Z,15.1842
2023-05-05T05:46:35.452Z,15.2128
2023-05-05T05:47:38.232Z,15.2913
2023-05-05T05:48:40.694Z,15.2704
2023-05-05T05:49:43.383Z,15.0928
2023-05-05T05:50:45.990Z,15.1556
2023-05-05T05:51:48.420Z,15.0656
2023-05-05T05:52:50.838Z,15.0662
2023-05-05T05:53:53.361Z,15.1126
2023-05-05T05:54:55.780Z,15.3573
2023-05-05T05:55:58.263Z,15.6037
2023-05-05T05:57:00.826Z,15.3584
2023-05-05T05:58:03.257Z,15.5544
2023-05-05T05:59:05.712Z,15.7918
2023-05-05T06:00:08.669Z,16.0608
2023-05-05T06:01:11.379Z,15.9810
2023-05-05T06:02:14.176Z,15.8904
2023-05-05T06:03:16.868Z,16.1868
2023-05-05T06:04:19.678Z,16.2043
2023-05-05T06:05:22.125Z,15.8771
2023-05-05T06:06:24.583Z,16.0941
2023-05-05T06:07:30.688Z,15.9953
2023-05-05T06:08:33.150Z,16.3715
2023-05-05T06:09:35.922Z,16.0453
2023-05-05T06:10:38.357Z,16.0736
2023-05-05T06:11:40.798Z,15.9686
2023-05-05T06:12:43.439Z,16.0203
2023-05-05T06:13:45.884Z,16.1659
2023-05-05T06:14:48.590Z,16.1223
2023-05-05T06:15:51.096Z,16.7358
2023-05-05T06:16:53.619Z,16.0341
2023-05-05T06:17:56.061Z,16.5825
2023-05-05T06:18:58.536Z,16.3971
2023-05-05T06:20:01.348Z,16.6438
2023-05-05T06:21:03.802Z,17.1217
2023-05-05T06:22:06.281Z,17.4711
2023-05-05T06:23:08.742Z,18.1993
2023-05-05T06:24:11.243Z,19.1537
2023-05-05T06:25:13.927Z,19.4743
2023-05-05T06:26:16.418Z,19.0001
2023-05-05T06:27:18.884Z,19.5899
2023-05-05T06:28:21.353Z,19.4647
2023-05-05T06:29:23.958Z,18.2494
2023-05-05T06:30:26.449Z,19.2941
2023-05-05T06:31:28.977Z,19.3799
2023-05-05T06:32:31.435Z,19.2197
2023-05-05T06:33:33.881Z,19.1140
2023-05-05T06:34:36.617Z,19.4451
2023-05-05T06:35:39.044Z,19.0191
2023-05-05T06:36:41.604Z,18.5419
2023-05-05T06:37:44.392Z,19.3175
2023-05-05T06:38:46.828Z,19.7135
2023-05-05T06:39:49.314Z,19.7443
2023-05-05T06:40:51.796Z,19.4691
2023-05-05T06:41:54.271Z,19.4833
2023-05-05T06:42:56.669Z,19.5181
2023-05-05T06:43:59.103Z,19.3953
2023-05-05T06:45:01.902Z,18.1561
2023-05-05T06:46:04.327Z,18.3872
2023-05-05T06:47:06.837Z,18.9417
2023-05-05T06:48:09.335Z,18.9759
2023-05-05T06:49:11.766Z,18.8516
2023-05-05T06:50:14.277Z,18.4335
2023-05-05T06:51:16.756Z,18.6936
2023-05-05T06:52:19.242Z,19.4592
2023-05-05T06:53:21.701Z,20.2752
2023-05-05T06:54:24.198Z,19.9603
2023-05-05T06:55:26.875Z,20.4101
2023-05-05T06:56:29.364Z,20.1287
2023-05-05T06:57:31.880Z,20.1475
2023-05-05T06:58:34.358Z,20.4840
2023-05-05T06:59:36.837Z,21.1957
2023-05-05T07:00:39.412Z,21.4061
2023-05-05T07:01:41.895Z,20.5402
2023-05-05T07:02:42.702Z,20.9984
2023-05-05T07:03:45.284Z,20.1153
2023-05-05T07:04:48.026Z,19.4853
2023-05-05T07:05:50.523Z,19.4082
2023-05-05T07:06:53.005Z,20.1494
2023-05-05T07:07:55.503Z,20.6310
2023-05-05T07:08:57.976Z,21.0789
2023-05-05T07:10:00.483Z,20.6595
2023-05-05T07:11:02.960Z,20.0648
2023-05-05T07:12:05.412Z,20.6507
2023-05-05T07:13:07.977Z,21.0611
2023-05-05T07:14:10.535Z,21.0944
2023-05-05T07:15:26.933Z,21.1133
2023-05-05T07:16:14.190Z,22.0075
2023-05-05T07:17:16.693Z,20.9929
2023-05-05T07:18:19.200Z,20.4992
2023-05-05T07:19:21.717Z,20.7149
2023-05-05T07:20:24.445Z,21.1291
2023-05-05T07:21:27.081Z,21.1290
2023-05-05T07:22:29.623Z,19.2016
2023-05-05T07:23:32.163Z,21.1910
2023-05-05T07:24:34.604Z,22.3595
2023-05-05T07:25:37.119Z,21.7903
2023-05-05T07:26:39.612Z,20.5718
2023-05-05T07:28:42.438Z,21.0017
2023-05-05T07:28:42.438Z,20.6664
2023-05-05T07:29:44.957Z,20.6389
2023-05-05T07:30:47.482Z,20.5058
2023-05-05T07:31:50.040Z,20.7163
2023-05-05T07:32:52.541Z,20.0423
2023-05-05T07:33:55.001Z,20.9124
2023-05-05T07:34:57.507Z,20.2544
2023-05-05T07:36:00.457Z,20.3613
2023-05-05T07:37:02.957Z,20.3440
2023-05-05T07:38:05.652Z,21.4189
2023-05-05T07:39:08.448Z,20.4369
2023-05-05T07:40:11.145Z,20.5695
2023-05-05T07:41:13.787Z,21.0159
2023-05-05T07:42:16.282Z,21.7062
2023-05-05T07:43:18.810Z,21.2127
2023-05-05T07:44:21.344Z,20.1109
2023-05-05T07:45:24.112Z,20.2957
2023-05-05T07:46:26.678Z,19.7580
2023-05-05T07:47:29.200Z,19.9795
2023-05-05T07:48:31.666Z,20.4975
2023-05-05T07:49:34.411Z,20.3576
2023-05-05T07:51:40.541Z,20.6271
2023-05-05T07:51:40.541Z,20.2278
2023-05-05T07:52:48.416Z,20.9235
2023-05-05T07:53:44.152Z,20.8122
2023-05-05T07:54:46.685Z,20.2108
2023-05-05T07:55:49.405Z,19.2310
2023-05-05T07:56:51.975Z,18.7667
2023-05-05T07:57:54.896Z,19.5515
2023-05-05T07:58:57.409Z,20.5875
2023-05-05T08:00:07.557Z,20.4818
2023-05-05T08:01:10.208Z,20.4964
2023-05-05T08:03:13.023Z,21.4977
2023-05-05T08:03:13.023Z,20.8665
2023-05-05T08:04:15.595Z,22.2921
2023-05-05T08:05:18.151Z,21.5975
2023-05-05T08:06:20.655Z,20.8327
2023-05-05T08:07:23.527Z,21.1115
2023-05-05T08:08:26.081Z,22.0397
2023-05-05T08:09:28.557Z,22.7304
2023-05-05T08:10:31.323Z,22.8082
2023-05-05T08:11:33.864Z,22.2084
2023-05-05T08:12:36.327Z,21.7617
2023-05-05T08:13:38.836Z,22.7794
2023-05-05T08:14:41.350Z,22.3055
2023-05-05T08:15:44.062Z,22.6918
2023-05-05T08:16:46.558Z,22.6404
2023-05-05T08:17:49.492Z,22.4135
2023-05-05T08:18:52.195Z,22.0482
2023-05-05T08:19:54.678Z,23.1592
2023-05-05T08:20:57.160Z,24.3530
2023-05-05T08:22:01.205Z,24.2762
2023-05-05T08:23:00.322Z,24.6363
2023-05-05T08:24:02.782Z,22.3204
2023-05-05T08:25:05.415Z,22.6302
2023-05-05T08:27:08.187Z,20.9403
2023-05-05T08:27:08.187Z,22.5490
2023-05-05T08:28:10.681Z,22.7125
2023-05-05T08:30:14.119Z,22.1649
2023-05-05T08:30:14.119Z,22.6902
2023-05-05T08:31:16.635Z,23.1471
2023-05-05T08:32:19.128Z,22.9066
2023-05-05T08:33:21.624Z,22.4652
2023-05-05T08:34:24.113Z,23.0703
2023-05-05T08:35:26.611Z,24.0057
2023-05-05T08:36:29.103Z,23.8122
2023-05-05T08:37:31.672Z,22.3634
2023-05-05T08:38:34.146Z,23.2616
2023-05-05T08:39:36.637Z,23.2228
2023-05-05T08:40:39.147Z,24.0670
2023-05-05T08:41:41.647Z,24.7857
2023-05-05T08:42:44.155Z,24.0976
2023-05-05T08:43:46.652Z,22.0826
2023-05-05T08:44:49.641Z,22.1132
2023-05-05T08:45:52.155Z,21.8104
2023-05-05T08:46:54.694Z,22.0059
2023-05-05T08:47:57.168Z,22.7227
2023-05-05T08:48:59.672Z,21.1522
2023-05-05T08:50:02.283Z,21.2399
2023-05-05T08:51:05.670Z,21.2901
2023-05-05T08:52:08.256Z,21.0487
2023-05-05T08:53:10.742Z,21.0121
2023-05-05T08:54:13.245Z,21.3160
2023-05-05T08:55:15.826Z,21.6822
2023-05-05T08:57:18.689Z,21.1909
2023-05-05T08:57:18.689Z,22.2244
2023-05-05T08:58:21.188Z,22.1731
2023-05-05T08:59:23.672Z,23.0885
2023-05-05T09:00:26.164Z,22.4410
2023-05-05T09:02:29.511Z,22.7637
2023-05-05T09:02:29.511Z,22.6158
2023-05-05T09:03:32.040Z,23.1809
2023-05-05T09:04:34.614Z,23.4726
2023-05-05T09:05:37.356Z,23.5274
2023-05-05T09:06:39.805Z,23.2875
2023-05-05T09:07:42.312Z,23.7760
2023-05-05T09:08:44.596Z,24.5277
2023-05-05T09:09:47.072Z,23.3461
2023-05-05T09:10:52.929Z,22.9704
2023-05-05T09:11:55.487Z,23.3098
2023-05-05T09:12:57.989Z,22.2122
2023-05-05T09:14:00.494Z,23.1243
2023-05-05T09:15:02.996Z,23.0651
2023-05-05T09:16:05.525Z,23.1506
2023-05-05T09:17:08.002Z,22.4426
2023-05-05T09:18:10.572Z,21.7142
2023-05-05T09:19:13.019Z,22.3721
2023-05-05T09:20:15.519Z,22.7824
2023-05-05T09:21:18.003Z,22.3366
2023-05-05T09:22:20.492Z,21.8630
2023-05-05T09:23:22.991Z,22.0152
2023-05-05T09:24:25.485Z,22.6265
2023-05-05T09:25:27.978Z,23.0249
2023-05-05T09:26:30.486Z,22.7866
2023-05-05T09:27:32.986Z,22.1767
2023-05-05T09:28:35.490Z,21.9412
2023-05-05T09:29:38.002Z,22.4732
2023-05-05T09:30:40.269Z,22.7078
2023-05-05T09:31:42.769Z,23.6892
2023-05-05T09:32:43.849Z,24.6024
2023-05-05T09:34:47.003Z,24.1317
2023-05-05T09:34:47.003Z,22.9500
2023-05-05T09:35:49.239Z,22.8333
2023-05-05T09:36:51.743Z,22.8914
2023-05-05T09:37:54.235Z,23.0472
2023-05-05T09:38:58.780Z,23.5232
2023-05-05T09:39:57.487Z,24.0368
2023-05-05T09:40:59.970Z,24.3057
2023-05-05T09:42:02.437Z,24.6147
2023-05-05T09:43:04.962Z,24.3096
2023-05-05T09:44:07.461Z,24.7851
2023-05-05T09:45:10.109Z,23.9262
2023-05-05T09:46:12.662Z,24.8761
2023-05-05T09:47:28.539Z,25.0164
2023-05-05T09:48:16.498Z,23.7672
2023-05-05T09:49:18.998Z,24.3104
2023-05-05T09:50:21.492Z,24.1832
2023-05-05T09:51:23.950Z,24.6221
2023-05-05T09:52:26.502Z,23.7666
2023-05-05T09:53:28.980Z,23.8945
2023-05-05T09:54:31.487Z,23.2167
2023-05-05T09:55:34.324Z,24.0365
2023-05-05T09:56:36.834Z,25.1354
2023-05-05T09:57:39.372Z,25.5385
2023-05-05T09:58:41.967Z,25.3349
2023-05-05T09:59:44.477Z,24.8424
2023-05-05T10:00:46.989Z,24.3811
2023-05-05T10:01:49.510Z,23.6791
2023-05-05T10:02:52.034Z,23.4446
2023-05-05T10:03:54.516Z,24.3554
2023-05-05T10:04:57.144Z,24.0698
2023-05-05T10:05:59.674Z,23.5764
2023-05-05T10:07:02.179Z,23.9133
2023-05-05T10:08:04.679Z,24.4047
2023-05-05T10:09:07.177Z,24.8856
2023-05-05T10:10:09.862Z,24.4820
2023-05-05T10:11:12.640Z,23.6774
2023-05-05T10:12:15.357Z,23.5970
2023-05-05T10:13:17.944Z,22.9558
2023-05-05T10:14:20.551Z,24.3030
2023-05-05T10:15:23.047Z,24.5129
2023-05-05T10:16:26.796Z,25.0628
2023-05-05T10:17:26.287Z,24.9573
2023-05-05T10:18:28.782Z,24.7102
2023-05-05T10:19:31.265Z,25.0655
2023-05-05T10:20:33.795Z,23.9036
2023-05-05T10:21:36.283Z,23.5987
2023-05-05T10:22:38.933Z,24.0791
2023-05-05T10:23:41.418Z,24.1288
2023-05-05T10:24:43.915Z,25.4293
2023-05-05T10:25:46.434Z,26.1112
2023-05-05T10:26:48.921Z,25.1151
2023-05-05T10:27:51.694Z,25.4240
2023-05-05T10:28:54.176Z,26.0630
2023-05-05T10:29:56.699Z,24.4292
2023-05-05T10:30:59.202Z,23.9290
2023-05-05T10:32:08.739Z,22.7041
2023-05-05T10:33:27.249Z,22.3983
2023-05-05T10:34:08.464Z,22.5285
2023-05-05T10:35:10.979Z,23.4311
2023-05-05T10:36:13.533Z,23.5297
2023-05-05T10:37:15.996Z,23.7632
2023-05-05T10:38:18.531Z,23.6700
2023-05-05T10:39:21.010Z,23.2563
2023-05-05T10:40:23.555Z,22.6478
2023-05-05T10:41:26.192Z,22.5188
2023-05-05T10:42:28.975Z,23.1667
2023-05-05T10:43:31.497Z,22.8879
2023-05-05T10:44:33.985Z,23.4438
2023-05-05T10:45:36.570Z,24.1191
2023-05-05T10:46:39.175Z,24.2126
2023-05-05T10:47:41.700Z,24.4331
2023-05-05T10:48:44.273Z,23.4358
2023-05-05T10:49:46.782Z,23.4399
2023-05-05T10:50:49.288Z,23.1889
2023-05-05T10:52:52.011Z,24.0375
2023-05-05T10:52:52.011Z,23.5070
2023-05-05T10:54:02.225Z,23.8679
2023-05-05T10:55:04.705Z,22.7949
2023-05-05T10:56:07.187Z,23.0219
2023-05-05T10:57:09.714Z,22.8661
2023-05-05T10:58:12.239Z,23.8656
2023-05-05T10:59:15.569Z,23.8404
2023-05-05T11:00:18.104Z,24.2042
2023-05-05T11:01:20.688Z,23.8961
2023-05-05T11:02:23.343Z,23.0656
2023-05-05T11:03:23.397Z,22.4981
2023-05-05T11:04:25.987Z,22.7951
2023-05-05T11:05:28.457Z,23.4737
2023-05-05T11:06:31.172Z,23.5028
2023-05-05T11:07:33.671Z,22.6226
2023-05-05T11:08:36.149Z,23.2740
2023-05-05T11:09:38.667Z,22.9946
2023-05-05T11:10:41.135Z,22.9932
2023-05-05T11:11:43.791Z,23.7311
2023-05-05T11:12:46.350Z,22.8562
2023-05-05T11:13:49.049Z,24.6902
2023-05-05T11:14:51.628Z,23.2269
2023-05-05T11:15:54.235Z,22.8050
2023-05-05T11:16:56.949Z,23.7379
2023-05-05T11:17:59.597Z,25.0247
2023-05-05T11:19:02.111Z,25.0206
2023-05-05T11:20:04.670Z,25.3960
2023-05-05T11:21:07.168Z,26.0655
2023-05-05T11:22:09.672Z,25.9629
2023-05-05T11:23:14.003Z,25.3930
2023-05-05T11:24:14.962Z,26.2936
2023-05-05T11:25:18.255Z,27.1689
2023-05-05T11:26:26.008Z,27.1733
2023-05-05T11:27:21.180Z,25.1490
2023-05-05T11:28:23.729Z,25.4541
2023-05-05T11:29:26.222Z,26.5036
2023-05-05T11:30:29.409Z,25.2268
2023-05-05T11:31:32.029Z,26.6253
2023-05-05T11:32:34.604Z,26.9283
2023-05-05T11:33:37.099Z,25.5603
2023-05-05T11:34:39.599Z,26.0099
2023-05-05T11:35:42.082Z,26.1823
2023-05-05T11:36:44.589Z,25.0394
2023-05-05T11:37:47.093Z,25.7208
2023-05-05T11:38:49.585Z,25.0105
2023-05-05T11:39:52.075Z,25.3955
2023-05-05T11:40:54.783Z,24.7828
2023-05-05T11:41:57.241Z,23.9367
2023-05-05T11:42:59.733Z,24.9295
2023-05-05T11:44:02.240Z,25.0630
2023-05-05T11:45:04.724Z,26.8026
2023-05-05T11:46:07.262Z,26.7802
2023-05-05T11:47:09.726Z,26.0055
2023-05-05T11:48:12.532Z,25.7976
2023-05-05T11:49:14.998Z,25.0528
2023-05-05T11:50:17.738Z,26.4172
2023-05-05T11:51:20.257Z,26.6009
2023-05-05T11:52:22.750Z,26.2331
2023-05-05T11:53:25.295Z,26.4412
2023-05-05T11:54:27.829Z,26.0504
2023-05-05T11:55:30.287Z,25.0900
2023-05-05T11:56:32.798Z,25.4780
2023-05-05T11:57:35.286Z,25.5889
2023-05-05T11:58:37.791Z,24.8814
2023-05-05T11:59:40.290Z,23.9333
2023-05-05T12:00:42.799Z,23.9675
2023-05-05T12:01:45.308Z,24.8825
2023-05-05T12:02:47.862Z,24.4388
2023-05-05T12:03:50.746Z,24.8966
2023-05-05T12:04:53.380Z,26.1151
2023-05-05T12:05:56.032Z,25.7365
2023-05-05T12:06:58.461Z,25.9428
2023-05-05T12:08:00.936Z,24.6577
2023-05-05T12:09:03.409Z,25.5523
2023-05-05T12:10:05.966Z,25.2171
2023-05-05T12:11:08.458Z,25.4320
2023-05-05T12:12:10.946Z,26.7398
2023-05-05T12:13:13.468Z,27.1798
2023-05-05T12:14:16.103Z,25.0297
2023-05-05T12:15:18.560Z,26.4649
2023-05-05T12:16:21.147Z,26.9206
2023-05-05T12:17:23.625Z,25.8872
2023-05-05T12:18:26.085Z,26.2398
2023-05-05T12:19:28.579Z,25.1535
2023-05-05T12:20:31.076Z,25.5831
2023-05-05T12:21:33.566Z,26.7888
2023-05-05T12:22:36.118Z,27.1036
2023-05-05T12:23:38.627Z,25.4522
2023-05-05T12:24:41.104Z,26.4530
2023-05-05T12:25:43.559Z,26.2181
2023-05-05T12:26:46.066Z,26.7271
2023-05-05T12:27:48.534Z,26.4965
2023-05-05T12:28:51.057Z,26.6093
2023-05-05T12:29:53.541Z,26.6437
2023-05-05T12:30:56.053Z,25.1707
2023-05-05T12:31:58.600Z,26.6829
2023-05-05T12:33:01.165Z,25.4549
2023-05-05T12:34:03.650Z,25.9777
2023-05-05T12:35:06.155Z,25.9627
2023-05-05T12:36:08.621Z,26.4330